メインページ
METAR-TAF:

METAR-TAF

空港 :

インディアナポリス国際空港

インディアナポリス, インディアナ州, アメリカ合衆国

緯度: 39-43-30N, 経度: 086-16-55W, 海抜: 243m

現時点の気象観測

当レポートは47分前の04:54(UTC)に作成
西の風 6kt
気温 23°C
湿度 78%
気圧 1008 hPa
視程: 16.1km
高度5500ftの雲はほとんどない
高度15000ftの千切れ雲あり
高度25000ftの千切れ雲あり

METAR: KIND 210454Z 26006KT 10SM FEW055 BKN150 BKN250 23/19 A2977 RMK AO2 SLP074 T02280189 403330211

時間: 01:41 (05:41 UTC)

予報

当レポートは21分前の05:20(UTC)に作成
予報は21日の 06時(UTC)から 22日の 12時(UTC)まで有効
西/南西の風 7kt
視程: 10km
高度5000ftの雲は散在している
高度15000ftの千切れ雲あり
21日の 1200時(UTC)から
西/南西の風 6kt
視程: 10km
高度3000ftの千切れ雲あり, 積乱雲.
近辺で激しい雷雨
21日の 1300時(UTC)から
西/南西の風 7kt
視程: 9.7km
高度1500ftの曇り, 積乱雲.
弱いにわか雨, 近辺で激しい雷雨
21日の 1900時(UTC)から
西の風 9kt
視程: 9.7km
高度2000ftの曇り, 積乱雲.
にわか雨, 近辺で激しい雷雨
22日の 0000時(UTC)から
北西の風 9kt
視程: 10km
高度2000ftの千切れ雲あり

TAF: KIND 210520Z 2106/2212 25007KT P6SM SCT050 BKN150 FM211200 24006KT P6SM VCTS BKN030CB FM211300 24007KT 6SM -SHRA VCTS OVC015CB FM211900 27009KT 6SM SHRA VCTS OVC020CB FM220000 31009KT P6SM BKN020

4,000以上の空港の気象観測と天気予報(METAR報とTAF報)

利用可能な観測所は地図上に黄色い丸と赤い丸で示す。

丸の上にカーソルを重ねると観測所名を参照できる。

次にクリックすると気象観測と天気予報を参照できる。

マップの切り替え:黒色「×」印の緑ボタンをクリックして拡大、「-」印の緑ボタンをクリックして縮小、緑色の三角印をクリックして隣りの地図に切り替え


METAR-TAF: